Time;durP1;ratioP1;P1;durP2;ratioP2;P2;SDS_P1;SDS_P2;PMS_P1;PMS_P2;Temp;Humidity;BMP_temperature;BMP_pressure;BME280_temperature;BME280_humidity;BME280_pressure;Samples;Min_cycle;Max_cycle;Signal;HPM_P1;HPM_P2
2021/10/17 00:04:26;;;;;;;33.00;16.43;;;;;;;11.89;68.92;100393.28;31134429;28;20137;-83
2021/10/17 00:19:28;;;;;;;33.50;17.23;;;;;;;11.74;68.68;100392.03;31182490;28;20121;-91
2021/10/17 00:34:30;;;;;;;33.77;17.10;;;;;;;11.56;68.91;100381.50;31169845;28;20022;-90
2021/10/17 00:49:32;;;;;;;32.90;16.73;;;;;;;11.45;69.02;100387.13;31160934;28;20048;-89
2021/10/17 01:04:39;;;;;;;29.00;15.73;;;;;;;11.57;68.96;100393.91;31163881;28;20042;-83
2021/10/17 01:19:47;;;;;;;27.23;14.37;;;;;;;11.55;69.05;100393.56;31158377;28;20054;-83
2021/10/17 01:34:49;;;;;;;30.93;14.87;;;;;;;11.48;68.96;100396.41;31129637;28;20049;-90
2021/10/17 01:49:51;;;;;;;30.00;15.23;;;;;;;11.36;69.60;100389.63;31140851;28;21932;-83
2021/10/17 02:04:53;;;;;;;27.97;14.20;;;;;;;11.24;70.03;100387.53;31143847;28;20053;-83
2021/10/17 02:19:55;;;;;;;30.57;14.87;;;;;;;11.13;70.50;100387.69;31140327;28;20061;-91
2021/10/17 02:34:57;;;;;;;30.03;14.10;;;;;;;11.13;70.56;100393.13;31165117;28;20049;-89
2021/10/17 02:49:59;;;;;;;23.33;13.07;;;;;;;11.12;70.39;100404.41;31162189;28;20414;-90
2021/10/17 03:05:05;;;;;;;32.50;15.27;;;;;;;11.13;70.23;100403.22;31154423;28;20042;-89
2021/10/17 03:20:09;;;;;;;;;;;;;;;10.96;70.78;100399.63;31140961;28;20058;-90
2021/10/17 03:35:11;;;;;;;31.10;14.73;;;;;;;10.93;70.49;100395.03;31142255;28;20385;-90
2021/10/17 03:50:13;;;;;;;22.83;11.90;;;;;;;10.86;70.67;100389.72;31174215;28;20093;-89
2021/10/17 04:05:15;;;;;;;29.43;13.67;;;;;;;10.89;70.94;100394.31;31138530;28;20537;-83
2021/10/17 04:20:17;;;;;;;29.30;11.53;;;;;;;10.95;70.89;100403.53;31149471;28;20044;-91
2021/10/17 04:35:19;;;;;;;24.77;12.10;;;;;;;10.96;71.81;100401.59;31156951;28;20061;-84
2021/10/17 04:50:21;;;;;;;21.00;11.53;;;;;;;11.03;71.38;100410.41;31131231;28;20976;-84
2021/10/17 05:05:23;;;;;;;21.40;11.07;;;;;;;11.09;70.32;100424.28;31136807;28;20068;-89
2021/10/17 05:20:25;;;;;;;20.30;10.83;;;;;;;11.21;69.82;100437.25;31134637;28;20544;-83
2021/10/17 05:35:27;;;;;;;26.00;11.50;;;;;;;11.32;68.85;100443.28;31167583;28;20033;-89
2021/10/17 05:50:30;;;;;;;26.47;12.77;;;;;;;11.47;68.42;100457.41;31162995;28;20050;-87
2021/10/17 06:05:32;;;;;;;18.10;10.77;;;;;;;11.73;67.51;100456.53;31165028;28;20395;-88
2021/10/17 06:20:34;;;;;;;17.53;9.07;;;;;;;12.00;66.59;100459.16;31163133;28;20046;-87
2021/10/17 06:35:36;;;;;;;21.07;10.10;;;;;;;12.37;64.63;100466.16;31170855;28;20565;-86
2021/10/17 06:50:41;;;;;;;21.20;10.50;;;;;;;12.91;63.01;100454.84;31146134;28;20054;-88
2021/10/17 07:05:43;;;;;;;22.57;12.13;;;;;;;13.86;59.69;100457.13;31158956;28;20049;-85
2021/10/17 07:20:45;;;;;;;16.33;8.57;;;;;;;15.90;54.67;100463.97;31106563;28;20054;-87
2021/10/17 07:35:47;;;;;;;17.25;9.30;;;;;;;15.92;52.04;100464.31;31151316;28;20057;-87
2021/10/17 07:50:49;;;;;;;16.37;9.30;;;;;;;15.77;50.88;100460.56;31103039;28;20479;-85
2021/10/17 08:05:51;;;;;;;22.10;9.80;;;;;;;16.86;49.26;100470.59;31104448;28;20064;-82
2021/10/17 08:20:54;;;;;;;18.85;8.93;;;;;;;17.49;47.95;100466.44;31090697;28;20065;-87
2021/10/17 08:35:56;;;;;;;18.15;8.68;;;;;;;17.86;46.94;100473.47;31105185;28;20038;-86
2021/10/17 08:50:59;;;;;;;14.25;8.65;;;;;;;17.63;46.59;100468.59;31149399;28;20049;-80
2021/10/17 09:06:15;;;;;;;18.70;9.20;;;;;;;18.28;43.71;100454.31;31126631;28;20145;-82
2021/10/17 09:21:19;;;;;;;18.85;7.88;;;;;;;17.20;45.59;100451.19;31118824;28;20439;-87
2021/10/17 09:36:28;;;;;;;13.40;7.55;;;;;;;16.95;46.07;100448.69;31128958;28;20410;-87
2021/10/17 09:51:32;;;;;;;23.73;11.35;;;;;;;17.68;45.34;100432.31;31150986;28;20211;-89
2021/10/17 10:06:35;;;;;;;15.27;8.60;;;;;;;18.00;44.41;100414.41;31167385;28;20050;-90
2021/10/17 10:21:39;;;;;;;17.10;8.38;;;;;;;17.66;43.51;100405.31;31101600;28;20058;-83
2021/10/17 10:36:44;;;;;;;10.70;6.57;;;;;;;17.70;43.76;100383.22;31109156;28;20064;-80
2021/10/17 10:51:46;;;;;;;7.07;4.60;;;;;;;18.70;41.09;100390.34;31117547;28;20049;-83
2021/10/17 11:07:29;;;;;;;8.00;5.45;;;;;;;18.74;39.64;100379.94;31109578;28;20050;-84
2021/10/17 11:22:35;;;;;;;10.30;6.30;;;;;;;19.16;39.08;100371.53;31096354;28;20082;-89
2021/10/17 11:37:37;;;;;;;11.80;6.50;;;;;;;18.74;40.41;100364.19;31095985;28;20057;-88
2021/10/17 11:52:57;;;;;;;13.30;5.47;;;;;;;18.45;38.80;100352.25;31138144;28;20080;-84
2021/10/17 12:07:59;;;;;;;10.13;5.43;;;;;;;17.82;40.38;100354.03;31103161;28;20053;-81
2021/10/17 12:23:02;;;;;;;13.13;6.53;;;;;;;17.20;41.41;100357.16;31090483;28;21577;-81
2021/10/17 12:38:18;;;;;;;17.48;7.85;;;;;;;16.60;41.04;100363.88;31136217;28;20037;-87
2021/10/17 12:53:26;;;;;;;20.45;7.38;;;;;;;16.19;41.43;100375.31;31147709;28;20049;-86
2021/10/17 13:08:29;;;;;;;12.38;6.43;;;;;;;15.99;42.37;100381.91;31087586;28;20718;-79
2021/10/17 13:23:31;;;;;;;11.80;6.65;;;;;;;15.71;41.98;100388.44;31110475;28;20077;-83
2021/10/17 13:38:36;;;;;;;;;;;;;;;15.55;41.22;100392.09;31088304;28;20073;-80
2021/10/17 13:53:41;;;;;;;13.20;7.32;;;;;;;15.25;43.02;100396.25;31128620;28;20340;-84
2021/10/17 14:08:43;;;;;;;15.57;8.37;;;;;;;15.01;44.38;100406.06;31141682;28;20047;-81
2021/10/17 14:23:45;;;;;;;15.83;7.80;;;;;;;14.83;45.03;100405.88;31113662;28;20086;-85
2021/10/17 14:38:47;;;;;;;18.83;8.10;;;;;;;14.56;45.92;100420.78;31111838;28;20059;-83
2021/10/17 14:53:49;;;;;;;19.37;8.70;;;;;;;14.28;46.83;100437.97;31160096;28;20080;-84
2021/10/17 15:08:54;;;;;;;21.73;11.40;;;;;;;14.06;47.78;100448.00;31105122;28;20525;-79
2021/10/17 15:23:56;;;;;;;23.97;12.53;;;;;;;13.72;48.89;100467.63;31116059;28;20550;-85
2021/10/17 15:38:58;;;;;;;20.90;11.37;;;;;;;13.38;49.87;100487.22;31116711;28;20097;-87
2021/10/17 15:54:22;;;;;;;25.20;12.87;;;;;;;13.17;51.71;100499.41;31091134;28;20054;-87
2021/10/17 16:09:27;;;;;;;26.10;14.57;;;;;;;13.15;51.39;100507.22;31118080;28;20092;-84
2021/10/17 16:24:37;;;;;;;28.50;13.67;;;;;;;13.20;51.93;100521.16;31129094;28;20057;-89
2021/10/17 16:39:43;;;;;;;31.77;15.33;;;;;;;13.09;52.37;100539.66;31126889;28;20053;-88
2021/10/17 16:54:47;;;;;;;27.83;16.93;;;;;;;12.96;53.26;100544.25;31120618;28;20045;-85
2021/10/17 17:09:49;;;;;;;38.03;17.70;;;;;;;12.84;55.07;100540.22;31122293;28;20049;-83
2021/10/17 17:24:51;;;;;;;40.93;19.63;;;;;;;12.81;56.44;100532.13;31139910;28;20068;-85
2021/10/17 17:39:53;;;;;;;42.87;19.43;;;;;;;12.67;58.01;100543.34;31125287;28;20113;-89
2021/10/17 17:54:55;;;;;;;47.57;23.17;;;;;;;12.54;58.85;100540.47;31169332;28;20490;-85
2021/10/17 18:09:57;;;;;;;44.63;23.97;;;;;;;12.34;60.80;100545.94;31132518;28;20070;-87
2021/10/17 18:25:00;;;;;;;51.07;26.17;;;;;;;12.10;60.91;100560.78;31126218;28;20405;-87
2021/10/17 18:40:02;;;;;;;52.50;25.90;;;;;;;11.86;62.95;100563.56;31157813;28;20130;-85
2021/10/17 18:55:05;;;;;;;77.43;32.40;;;;;;;11.58;64.43;100570.19;31157710;28;20050;-88
2021/10/17 19:10:09;;;;;;;58.37;27.63;;;;;;;11.32;65.66;100575.69;31119566;28;20046;-88
2021/10/17 19:25:16;;;;;;;52.37;25.33;;;;;;;11.03;66.94;100583.50;31154366;28;20058;-86
2021/10/17 19:40:20;;;;;;;50.57;24.20;;;;;;;10.75;67.42;100587.34;31101090;28;20406;-86
2021/10/17 19:55:23;;;;;;;44.87;21.33;;;;;;;10.44;69.22;100598.16;31113062;28;20418;-85
2021/10/17 20:10:25;;;;;;;41.17;20.10;;;;;;;10.27;69.84;100601.84;31159619;28;20061;-83
2021/10/17 20:25:27;;;;;;;39.03;21.37;;;;;;;10.17;70.00;100600.75;31161804;28;20058;-84
2021/10/17 20:40:30;;;;;;;36.73;18.93;;;;;;;10.10;70.39;100594.66;31082950;28;20046;-85
2021/10/17 20:55:43;;;;;;;33.13;16.37;;;;;;;9.99;70.86;100604.81;31175590;28;20046;-91
2021/10/17 21:10:50;;;;;;;33.93;16.77;;;;;;;9.83;71.04;100613.50;31071867;28;20070;-91
2021/10/17 21:25:52;;;;;;;31.80;16.83;;;;;;;9.67;71.07;100619.44;31072941;28;20117;-91
2021/10/17 21:40:55;;;;;;;33.37;17.17;;;;;;;9.44;71.77;100624.63;31087921;28;20081;-91
2021/10/17 21:55:57;;;;;;;33.00;16.00;;;;;;;9.28;72.40;100624.34;31024478;28;20450;-84
2021/10/17 22:10:59;;;;;;;33.93;15.70;;;;;;;9.16;72.88;100631.75;31020029;28;20043;-91
2021/10/17 22:26:02;;;;;;;32.43;16.10;;;;;;;9.00;73.06;100634.16;31074876;28;20414;-90
2021/10/17 22:41:04;;;;;;;24.90;13.43;;;;;;;8.96;73.90;100638.06;31047034;28;20046;-85
2021/10/17 22:56:06;;;;;;;33.53;15.10;;;;;;;8.85;74.19;100643.50;31038506;28;20054;-90
2021/10/17 23:11:07;;;;;;;31.63;15.07;;;;;;;8.67;74.81;100642.81;31042998;28;20093;-92
2021/10/17 23:26:10;;;;;;;40.23;18.23;;;;;;;8.55;75.40;100647.47;31025481;28;20062;-84
2021/10/17 23:41:12;;;;;;;41.13;18.43;;;;;;;8.38;75.72;100642.88;31012139;28;20053;-84
2021/10/17 23:56:14;;;;;;;38.20;18.10;;;;;;;8.20;76.67;100629.38;31029544;28;20404;-91
